createdAt,value
2023-02-09T00:03:09.002Z,72.03
2023-02-09T00:07:16.896Z,72.03
2023-02-09T00:11:46.966Z,71.70
2023-02-09T00:15:58.066Z,71.73
2023-02-09T00:20:07.480Z,71.65
2023-02-09T00:24:17.365Z,71.37
2023-02-09T00:28:25.528Z,71.27
2023-02-09T00:32:34.397Z,71.54
2023-02-09T00:36:43.465Z,71.42
2023-02-09T00:40:51.163Z,71.46
2023-02-09T00:44:58.795Z,71.46
2023-02-09T00:49:06.882Z,71.46
2023-02-09T00:53:15.062Z,71.70
2023-02-09T00:57:23.538Z,71.60
2023-02-09T01:01:31.295Z,71.55
2023-02-09T01:05:41.736Z,71.38
2023-02-09T01:09:49.611Z,71.23
2023-02-09T01:14:00.325Z,71.17
2023-02-09T01:18:08.547Z,71.44
2023-02-09T01:22:16.601Z,71.51
2023-02-09T01:26:24.169Z,71.63
2023-02-09T01:30:31.936Z,71.53
2023-02-09T01:34:39.899Z,71.64
2023-02-09T01:38:47.605Z,71.59
2023-02-09T01:42:55.575Z,71.68
2023-02-09T01:47:04.172Z,71.75
2023-02-09T01:51:11.924Z,71.71
2023-02-09T01:55:21.972Z,71.87
2023-02-09T01:59:31.256Z,71.93
2023-02-09T02:03:40.604Z,71.76
2023-02-09T02:07:53.337Z,71.71
2023-02-09T02:12:01.415Z,72.04
2023-02-09T02:16:19.549Z,72.02
2023-02-09T02:21:00.823Z,72.02
2023-02-09T02:25:46.836Z,72.13
2023-02-09T02:30:10.316Z,72.15
2023-02-09T02:34:24.362Z,72.23
2023-02-09T02:38:36.005Z,72.46
2023-02-09T02:42:50.798Z,72.83
2023-02-09T02:47:03.684Z,72.94
2023-02-09T02:51:16.624Z,73.16
2023-02-09T02:55:26.935Z,73.16
2023-02-09T02:59:36.724Z,73.27
2023-02-09T03:03:45.536Z,73.46
2023-02-09T03:07:54.370Z,73.46
2023-02-09T03:12:07.053Z,73.43
2023-02-09T03:16:27.802Z,73.27
2023-02-09T03:20:43.065Z,73.17
2023-02-09T03:24:56.190Z,73.28
2023-02-09T03:29:06.483Z,73.21
2023-02-09T03:33:23.687Z,73.28
2023-02-09T03:37:31.716Z,73.33
2023-02-09T03:41:39.368Z,73.39
2023-02-09T03:45:47.119Z,73.61
2023-02-09T03:49:55.009Z,73.54
2023-02-09T03:54:04.109Z,73.76
2023-02-09T03:58:12.229Z,73.61
2023-02-09T04:02:20.845Z,73.68
2023-02-09T04:06:28.558Z,73.68
2023-02-09T04:10:36.308Z,73.78
2023-02-09T04:14:44.142Z,73.69
2023-02-09T04:18:52.638Z,73.72
2023-02-09T04:23:00.361Z,73.69
2023-02-09T04:27:08.266Z,73.57
2023-02-09T04:31:16.267Z,73.60
2023-02-09T04:35:24.588Z,73.63
2023-02-09T04:39:32.727Z,73.80
2023-02-09T04:43:40.536Z,74.01
2023-02-09T04:47:48.714Z,73.94
2023-02-09T04:51:56.406Z,74.12
2023-02-09T04:56:05.580Z,74.29
2023-02-09T05:00:15.887Z,74.43
2023-02-09T05:04:23.311Z,74.39
2023-02-09T05:08:31.011Z,74.32
2023-02-09T05:12:39.667Z,74.49
2023-02-09T05:16:47.751Z,74.19
2023-02-09T05:20:59.058Z,74.19
2023-02-09T05:25:07.082Z,74.19
2023-02-09T05:29:17.203Z,74.05
2023-02-09T05:33:26.258Z,74.06
2023-02-09T05:37:34.005Z,74.17
2023-02-09T05:41:59.526Z,74.05
2023-02-09T05:46:11.790Z,74.31
2023-02-09T05:50:24.682Z,74.17
2023-02-09T05:54:33.186Z,74.17
2023-02-09T05:58:40.740Z,74.12
2023-02-09T06:02:49.729Z,74.24
2023-02-09T06:06:59.669Z,74.37
2023-02-09T06:11:07.833Z,74.43
2023-02-09T06:15:17.247Z,74.20
2023-02-09T06:19:24.993Z,74.14
2023-02-09T06:23:35.123Z,74.04
2023-02-09T06:27:43.195Z,73.67
2023-02-09T06:31:51.420Z,73.75
2023-02-09T06:35:59.672Z,73.80
2023-02-09T06:40:08.121Z,73.83
2023-02-09T06:44:15.619Z,74.11
2023-02-09T06:48:23.392Z,74.03
2023-02-09T06:52:30.966Z,74.03
2023-02-09T06:56:38.659Z,74.01
2023-02-09T07:00:47.364Z,74.07
2023-02-09T07:04:55.505Z,74.14
2023-02-09T07:09:03.396Z,74.29
2023-02-09T07:13:11.205Z,74.24
2023-02-09T07:17:19.190Z,74.19
2023-02-09T07:21:26.930Z,74.06
2023-02-09T07:25:37.099Z,73.92
2023-02-09T07:29:45.024Z,73.93
2023-02-09T07:33:54.369Z,73.82
2023-02-09T07:38:02.140Z,73.59
2023-02-09T07:42:09.988Z,73.37
2023-02-09T07:46:21.694Z,73.18
2023-02-09T07:50:29.994Z,73.07
2023-02-09T07:54:38.100Z,72.90
2023-02-09T07:58:46.047Z,72.49
2023-02-09T08:02:54.218Z,72.28
2023-02-09T08:07:03.403Z,72.28
2023-02-09T08:11:12.046Z,71.93
2023-02-09T08:15:22.563Z,71.91
2023-02-09T08:19:32.051Z,71.46
2023-02-09T08:23:40.732Z,71.19
2023-02-09T08:27:50.974Z,70.96
2023-02-09T08:31:58.824Z,70.52
2023-02-09T08:36:06.767Z,70.25
2023-02-09T08:40:16.400Z,69.64
2023-02-09T08:44:24.201Z,69.11
2023-02-09T08:48:35.676Z,68.73
2023-02-09T08:52:44.701Z,67.89
2023-02-09T08:56:52.683Z,67.45
2023-02-09T09:01:00.929Z,67.42
2023-02-09T09:05:09.788Z,66.54
2023-02-09T09:09:17.881Z,65.78
2023-02-09T09:13:26.210Z,65.36
2023-02-09T09:17:33.947Z,65.71
2023-02-09T09:21:42.082Z,65.43
2023-02-09T09:25:50.805Z,65.54
2023-02-09T09:29:58.722Z,65.15
2023-02-09T09:34:06.411Z,64.27
2023-02-09T09:38:15.442Z,62.70
2023-02-09T09:42:31.348Z,62.81
2023-02-09T09:46:43.278Z,62.36
2023-02-09T09:50:51.654Z,60.92
2023-02-09T09:55:01.553Z,60.25
2023-02-09T09:59:11.288Z,60.36
2023-02-09T10:03:23.243Z,60.21
2023-02-09T10:07:33.646Z,59.54
2023-02-09T10:11:45.165Z,58.72
2023-02-09T10:15:53.933Z,58.61
2023-02-09T10:20:08.270Z,58.42
2023-02-09T10:24:22.269Z,57.86
2023-02-09T10:28:32.402Z,57.63
2023-02-09T10:32:42.758Z,57.88
2023-02-09T10:36:53.344Z,57.82
2023-02-09T10:41:03.865Z,56.86
2023-02-09T10:45:17.379Z,56.27
2023-02-09T10:49:35.406Z,56.65
2023-02-09T10:53:57.793Z,55.16
2023-02-09T10:58:16.627Z,54.37
2023-02-09T11:02:37.251Z,54.67
2023-02-09T11:06:49.845Z,54.74
2023-02-09T11:11:02.398Z,54.18
2023-02-09T11:15:17.594Z,54.18
2023-02-09T11:19:51.778Z,54.17
2023-02-09T11:24:03.717Z,53.51
2023-02-09T11:28:25.189Z,51.43
2023-02-09T11:32:36.194Z,52.01
2023-02-09T11:36:50.231Z,52.36
2023-02-09T11:41:20.866Z,52.74
2023-02-09T11:45:33.066Z,53.29
2023-02-09T11:49:47.031Z,53.42
2023-02-09T11:54:00.126Z,52.31
2023-02-09T11:58:21.547Z,53.03
2023-02-09T12:02:46.413Z,52.38
2023-02-09T12:06:56.974Z,52.58
2023-02-09T12:11:16.426Z,52.55
2023-02-09T12:15:26.069Z,52.29
2023-02-09T12:19:37.977Z,51.58
2023-02-09T12:23:46.716Z,50.88
2023-02-09T12:28:19.075Z,50.39
2023-02-09T12:32:42.713Z,49.86
2023-02-09T12:37:27.369Z,50.42
2023-02-09T12:42:19.760Z,49.67
2023-02-09T12:46:29.812Z,49.46
2023-02-09T12:50:54.518Z,50.67
2023-02-09T12:55:16.645Z,49.95
2023-02-09T12:59:28.571Z,49.59
2023-02-09T13:03:45.990Z,49.28
2023-02-09T13:07:58.299Z,49.26
2023-02-09T13:12:11.114Z,48.51
2023-02-09T13:16:44.890Z,49.19
2023-02-09T13:21:17.103Z,48.86
2023-02-09T13:25:32.512Z,48.83
2023-02-09T13:29:39.900Z,48.51
2023-02-09T13:33:52.855Z,48.59
2023-02-09T13:38:01.559Z,48.13
2023-02-09T13:42:23.604Z,48.04
2023-02-09T13:46:35.345Z,48.74
2023-02-09T13:50:53.806Z,48.94
2023-02-09T13:55:13.063Z,48.49
2023-02-09T13:59:21.127Z,47.58
2023-02-09T14:03:31.024Z,48.44
2023-02-09T14:07:40.271Z,49.75
2023-02-09T14:11:51.633Z,50.17
2023-02-09T14:16:07.989Z,49.88
2023-02-09T14:20:25.035Z,48.05
2023-02-09T14:24:44.847Z,47.92
2023-02-09T14:28:55.199Z,48.14
2023-02-09T14:33:04.852Z,49.00
2023-02-09T14:37:33.694Z,48.32
2023-02-09T14:41:42.158Z,47.34
2023-02-09T14:45:59.204Z,46.64
2023-02-09T14:50:14.302Z,46.62
2023-02-09T14:54:26.763Z,46.87
2023-02-09T14:58:35.224Z,47.25
2023-02-09T15:02:43.292Z,47.06
2023-02-09T15:06:58.240Z,47.42
2023-02-09T15:11:28.552Z,48.10
2023-02-09T15:15:38.740Z,48.16
2023-02-09T15:19:48.053Z,48.57
2023-02-09T15:23:55.692Z,49.25
2023-02-09T15:28:04.646Z,49.65
2023-02-09T15:32:17.387Z,49.64
2023-02-09T15:36:26.171Z,50.19
2023-02-09T15:40:52.909Z,50.67
2023-02-09T15:45:18.180Z,50.62
2023-02-09T15:49:25.922Z,51.18
2023-02-09T15:53:34.883Z,51.53
2023-02-09T15:57:43.291Z,52.05
2023-02-09T16:01:51.830Z,52.51
2023-02-09T16:06:02.358Z,52.78
2023-02-09T16:10:23.056Z,53.12
2023-02-09T16:14:31.741Z,53.53
2023-02-09T16:18:39.402Z,54.21
2023-02-09T16:22:49.257Z,54.61
2023-02-09T16:26:58.945Z,55.13
2023-02-09T16:31:08.636Z,55.62
2023-02-09T16:35:20.436Z,55.99
2023-02-09T16:39:28.336Z,56.67
2023-02-09T16:43:36.548Z,57.11
2023-02-09T16:47:49.609Z,57.65
2023-02-09T16:51:59.412Z,57.71
2023-02-09T16:56:10.722Z,57.95
2023-02-09T17:00:19.993Z,58.04
2023-02-09T17:04:27.811Z,58.04
2023-02-09T17:08:37.420Z,58.23
2023-02-09T17:12:47.310Z,58.53
2023-02-09T17:16:55.253Z,58.71
2023-02-09T17:21:05.969Z,59.04
2023-02-09T17:25:19.153Z,58.93
2023-02-09T17:29:27.596Z,59.12
2023-02-09T17:33:36.608Z,59.08
2023-02-09T17:37:47.765Z,59.12
2023-02-09T17:41:55.592Z,59.00
2023-02-09T17:46:05.623Z,59.05
2023-02-09T17:50:15.962Z,59.30
2023-02-09T17:54:23.771Z,59.14
2023-02-09T17:58:32.035Z,59.30
2023-02-09T18:02:40.379Z,59.48
2023-02-09T18:06:49.462Z,59.87
2023-02-09T18:10:58.939Z,60.07
2023-02-09T18:15:08.443Z,60.23
2023-02-09T18:19:17.348Z,60.20
2023-02-09T18:23:25.432Z,60.08
2023-02-09T18:27:33.039Z,59.97
2023-02-09T18:31:41.174Z,59.42
2023-02-09T18:35:49.531Z,59.13
2023-02-09T18:39:57.672Z,59.07
2023-02-09T18:44:05.296Z,59.23
2023-02-09T18:48:13.675Z,59.07
2023-02-09T18:52:26.944Z,59.16
2023-02-09T18:56:35.861Z,58.92
2023-02-09T19:00:43.972Z,58.95
2023-02-09T19:04:51.492Z,58.67
2023-02-09T19:09:00.839Z,58.68
2023-02-09T19:13:09.100Z,58.74
2023-02-09T19:17:20.756Z,58.61
2023-02-09T19:21:28.520Z,58.58
2023-02-09T19:25:37.023Z,58.53
2023-02-09T19:29:45.910Z,58.52
2023-02-09T19:33:58.066Z,58.72
2023-02-09T19:38:05.454Z,58.58
2023-02-09T19:42:13.650Z,58.47
2023-02-09T19:46:21.455Z,58.58
2023-02-09T19:50:29.106Z,58.65
2023-02-09T19:54:37.760Z,58.83
2023-02-09T19:58:46.591Z,58.82
2023-02-09T20:02:54.196Z,58.54
2023-02-09T20:07:03.902Z,58.21
2023-02-09T20:11:14.064Z,58.37
2023-02-09T20:15:22.209Z,58.37
2023-02-09T20:19:30.625Z,58.45
2023-02-09T20:23:39.580Z,58.59
2023-02-09T20:27:51.255Z,58.66
2023-02-09T20:31:59.042Z,58.67
2023-02-09T20:36:10.429Z,58.93
2023-02-09T20:40:18.811Z,59.12
2023-02-09T20:44:44.382Z,59.24
2023-02-09T20:48:52.374Z,59.61
2023-02-09T20:53:01.788Z,59.66
2023-02-09T20:57:10.238Z,59.65
2023-02-09T21:01:18.002Z,59.62
2023-02-09T21:05:25.543Z,59.77
2023-02-09T21:09:33.348Z,59.65
2023-02-09T21:13:41.639Z,59.82
2023-02-09T21:17:50.072Z,59.60
2023-02-09T21:21:59.145Z,59.73
2023-02-09T21:26:09.703Z,59.80
2023-02-09T21:30:18.436Z,59.95
2023-02-09T21:34:26.230Z,59.93
2023-02-09T21:38:34.979Z,60.05
2023-02-09T21:42:42.954Z,60.16
2023-02-09T21:46:50.610Z,60.40
2023-02-09T21:50:58.874Z,60.39
2023-02-09T21:55:08.429Z,60.25
2023-02-09T21:59:16.379Z,60.33
2023-02-09T22:03:23.686Z,60.37
2023-02-09T22:07:32.433Z,60.31
2023-02-09T22:11:40.477Z,60.35
2023-02-09T22:15:49.600Z,60.42
2023-02-09T22:19:57.208Z,60.58
2023-02-09T22:24:07.546Z,60.81
2023-02-09T22:28:15.917Z,61.16
2023-02-09T22:32:24.670Z,61.59
2023-02-09T22:36:32.473Z,61.71
2023-02-09T22:40:40.507Z,62.22
2023-02-09T22:44:49.152Z,62.24
2023-02-09T22:48:58.556Z,62.22
2023-02-09T22:53:06.492Z,62.08
2023-02-09T22:57:14.725Z,62.14
2023-02-09T23:01:22.280Z,62.26
2023-02-09T23:05:30.185Z,62.25
2023-02-09T23:09:37.943Z,62.22
2023-02-09T23:13:49.302Z,62.06
2023-02-09T23:18:00.490Z,62.04
2023-02-09T23:22:08.764Z,62.10
2023-02-09T23:26:18.658Z,62.01
2023-02-09T23:30:26.697Z,62.08
2023-02-09T23:34:34.992Z,62.20
2023-02-09T23:38:43.218Z,62.26
2023-02-09T23:42:50.925Z,62.42
2023-02-09T23:46:58.843Z,62.56
2023-02-09T23:51:09.459Z,62.63
2023-02-09T23:55:17.183Z,62.64
2023-02-09T23:59:25.217Z,62.63
